Time;durP1;ratioP1;P1;durP2;ratioP2;P2;SDS_P1;SDS_P2;PMS_P1;PMS_P2;Temp;Humidity;BMP_temperature;BMP_pressure;BME280_temperature;BME280_humidity;BME280_pressure;Samples;Min_cycle;Max_cycle;Signal;HPM_P1;HPM_P2
2022/01/01 00:01:13;;;;;;;22.83;10.55;;;;;;;;;;6273119;22;20058;-67
2022/01/01 00:03:39;;;;;;;13.38;7.57;;;;;;;;;;6272489;22;20493;-68
2022/01/01 00:06:05;;;;;;;36.08;20.30;;;;;;;;;;6271257;22;20734;-62
2022/01/01 00:08:31;;;;;;;21.52;8.55;;;;;;;;;;6274024;22;20061;-71
2022/01/01 00:10:57;;;;;;;17.05;7.13;;;;;;;;;;6271880;22;20025;-68
2022/01/01 00:13:23;;;;;;;19.70;8.02;;;;;;;;;;6272580;22;20070;-66
2022/01/01 00:15:49;;;;;;;20.02;7.30;;;;;;;;;;6270803;22;20442;-66
2022/01/01 00:18:16;;;;;;;18.02;9.10;;;;;;;;;;6272243;22;20058;-67
2022/01/01 00:20:43;;;;;;;16.80;7.45;;;;;;;;;;6273455;22;20065;-66
2022/01/01 00:23:09;;;;;;;14.45;8.40;;;;;;;;;;6272116;22;20011;-66
2022/01/01 00:25:35;;;;;;;16.88;6.72;;;;;;;;;;6274006;22;20003;-65
2022/01/01 00:28:01;;;;;;;16.73;7.13;;;;;;;;;;6270875;22;20022;-68
2022/01/01 00:30:27;;;;;;;19.52;7.85;;;;;;;;;;6270847;22;20031;-67
2022/01/01 00:32:53;;;;;;;23.05;7.82;;;;;;;;;;6271545;22;19999;-65
2022/01/01 00:35:19;;;;;;;15.30;7.68;;;;;;;;;;6272551;22;20490;-66
2022/01/01 00:37:45;;;;;;;23.95;7.72;;;;;;;;;;6271026;22;20073;-68
2022/01/01 00:40:11;;;;;;;19.67;6.43;;;;;;;;;;6271482;22;20057;-66
2022/01/01 00:42:37;;;;;;;21.80;7.88;;;;;;;;;;6272292;22;20004;-67
2022/01/01 00:45:04;;;;;;;23.25;7.28;;;;;;;;;;6271969;22;20006;-67
2022/01/01 00:47:30;;;;;;;15.65;7.28;;;;;;;;;;6272170;22;20030;-67
2022/01/01 00:49:56;;;;;;;20.75;6.75;;;;;;;;;;6271653;22;20066;-66
2022/01/01 00:52:22;;;;;;;14.10;5.55;;;;;;;;;;6272517;22;20756;-67
2022/01/01 00:54:48;;;;;;;20.98;6.45;;;;;;;;;;6270192;22;20334;-65
2022/01/01 00:57:14;;;;;;;16.63;6.30;;;;;;;;;;6271258;22;20023;-67
2022/01/01 00:59:40;;;;;;;18.02;6.38;;;;;;;;;;6271877;22;20003;-63
2022/01/01 01:02:06;;;;;;;18.55;6.97;;;;;;;;;;6271835;22;20000;-64
2022/01/01 01:04:32;;;;;;;22.83;6.05;;;;;;;;;;6272381;22;19999;-65
2022/01/01 01:06:58;;;;;;;24.30;8.02;;;;;;;;;;6272149;22;20020;-65
2022/01/01 01:09:25;;;;;;;12.73;5.70;;;;;;;;;;6271892;22;20027;-65
2022/01/01 01:11:52;;;;;;;20.33;7.05;;;;;;;;;;6272290;22;20493;-66
2022/01/01 01:14:24;;;;;;;12.13;5.53;;;;;;;;;;6272184;22;20031;-63
2022/01/01 01:16:51;;;;;;;18.52;5.63;;;;;;;;;;6271490;22;20003;-66
2022/01/01 01:19:17;;;;;;;13.32;6.38;;;;;;;;;;6271084;22;20532;-65
2022/01/01 01:21:46;;;;;;;19.85;6.28;;;;;;;;;;6271953;22;20391;-63
2022/01/01 01:24:14;;;;;;;15.88;5.65;;;;;;;;;;6272233;22;20015;-65
2022/01/01 01:26:47;;;;;;;12.32;5.78;;;;;;;;;;6272712;22;20000;-68
2022/01/01 01:29:13;;;;;;;18.83;6.60;;;;;;;;;;6270953;22;20011;-66
2022/01/01 01:31:39;;;;;;;13.02;5.22;;;;;;;;;;6272699;22;20011;-68
2022/01/01 01:34:06;;;;;;;17.45;5.38;;;;;;;;;;6272175;22;20007;-66
2022/01/01 01:36:32;;;;;;;14.50;5.80;;;;;;;;;;6272770;22;20083;-64
2022/01/01 01:38:58;;;;;;;16.77;6.25;;;;;;;;;;6270881;22;20007;-66
2022/01/01 01:41:29;;;;;;;15.77;5.40;;;;;;;;;;6272722;22;20003;-65
2022/01/01 01:43:56;;;;;;;28.02;6.43;;;;;;;;;;6273900;22;20012;-66
2022/01/01 01:46:23;;;;;;;18.00;5.40;;;;;;;;;;6274828;22;20022;-65
2022/01/01 01:48:49;;;;;;;16.70;5.43;;;;;;;;;;6276131;22;20004;-65
2022/01/01 01:51:16;;;;;;;23.23;5.20;;;;;;;;;;6274445;22;20008;-67
2022/01/01 01:53:42;;;;;;;21.20;5.93;;;;;;;;;;6273408;22;20537;-64
2022/01/01 01:56:08;;;;;;;19.38;5.20;;;;;;;;;;6273735;22;20007;-64
2022/01/01 01:58:34;;;;;;;31.40;6.72;;;;;;;;;;6273451;22;20003;-67
2022/01/01 02:03:45;;;;;;;15.90;6.20;;;;;;;;;;6273795;22;20514;-63
2022/01/01 02:06:11;;;;;;;19.35;5.80;;;;;;;;;;6272567;22;20000;-67
2022/01/01 02:08:38;;;;;;;22.10;6.78;;;;;;;;;;6273515;22;20002;-67
2022/01/01 02:11:04;;;;;;;14.23;5.30;;;;;;;;;;6273299;22;20079;-64
2022/01/01 02:13:40;;;;;;;16.27;5.60;;;;;;;;;;6274533;22;20070;-63
2022/01/01 02:16:29;;;;;;;19.80;4.22;;;;;;;;;;6273180;22;20061;-67
2022/01/01 02:18:55;;;;;;;15.80;5.22;;;;;;;;;;6274281;22;20589;-64
2022/01/01 02:21:22;;;;;;;31.50;7.85;;;;;;;;;;6272969;22;20007;-67
2022/01/01 02:23:56;;;;;;;18.25;5.75;;;;;;;;;;6272641;22;20015;-65
2022/01/01 02:26:22;;;;;;;17.92;5.03;;;;;;;;;;6272306;22;19995;-69
2022/01/01 02:28:48;;;;;;;19.40;6.80;;;;;;;;;;6274133;22;20003;-63
2022/01/01 02:31:15;;;;;;;14.38;7.78;;;;;;;;;;6273484;22;20000;-68
2022/01/01 02:33:42;;;;;;;11.48;5.57;;;;;;;;;;6274136;22;20011;-67
2022/01/01 02:36:09;;;;;;;21.00;5.53;;;;;;;;;;6271917;22;20007;-68
2022/01/01 02:38:36;;;;;;;20.00;6.00;;;;;;;;;;6273534;22;20037;-67
2022/01/01 02:41:02;;;;;;;19.90;6.15;;;;;;;;;;6273648;22;19999;-68
2022/01/01 02:43:28;;;;;;;21.95;5.13;;;;;;;;;;6273538;22;20014;-65
2022/01/01 02:45:54;;;;;;;18.42;6.07;;;;;;;;;;6273948;22;20007;-67
2022/01/01 02:48:21;;;;;;;19.50;6.53;;;;;;;;;;6273956;22;20049;-66
2022/01/01 02:50:47;;;;;;;22.50;4.93;;;;;;;;;;6273780;22;20011;-65
2022/01/01 02:53:14;;;;;;;20.38;5.47;;;;;;;;;;6273206;22;19999;-66
2022/01/01 02:55:40;;;;;;;20.55;5.55;;;;;;;;;;6273301;22;20004;-66
2022/01/01 02:58:06;;;;;;;22.02;5.93;;;;;;;;;;6273179;22;20511;-65
2022/01/01 03:00:32;;;;;;;20.38;6.00;;;;;;;;;;6271699;22;20004;-66
2022/01/01 03:02:59;;;;;;;23.98;6.78;;;;;;;;;;6272429;22;19995;-65
2022/01/01 03:05:25;;;;;;;19.42;6.47;;;;;;;;;;6271940;22;20000;-68
2022/01/01 03:07:51;;;;;;;28.60;7.80;;;;;;;;;;6272238;22;20257;-64
2022/01/01 03:10:17;;;;;;;20.60;6.40;;;;;;;;;;6272110;22;20007;-63
2022/01/01 03:12:43;;;;;;;25.98;6.38;;;;;;;;;;6271910;22;20062;-66
2022/01/01 03:15:09;;;;;;;30.23;7.75;;;;;;;;;;6270789;22;20525;-64
2022/01/01 03:17:35;;;;;;;24.95;6.18;;;;;;;;;;6271572;22;20035;-65
2022/01/01 03:20:01;;;;;;;19.48;5.00;;;;;;;;;;6271661;22;20057;-66
2022/01/01 03:22:27;;;;;;;20.70;6.53;;;;;;;;;;6272827;22;20325;-69
2022/01/01 03:24:53;;;;;;;17.38;5.47;;;;;;;;;;6272955;22;20007;-66
2022/01/01 03:27:19;;;;;;;20.23;5.75;;;;;;;;;;6271453;22;20000;-66
2022/01/01 03:29:45;;;;;;;21.33;5.47;;;;;;;;;;6272568;22;20083;-64
2022/01/01 03:32:11;;;;;;;18.80;6.10;;;;;;;;;;6269715;22;20015;-66
2022/01/01 03:34:37;;;;;;;18.25;5.00;;;;;;;;;;6276431;22;20434;-67
2022/01/01 03:37:04;;;;;;;22.63;6.20;;;;;;;;;;6275370;22;20000;-62
2022/01/01 03:39:30;;;;;;;31.63;8.75;;;;;;;;;;6274329;22;20018;-67
2022/01/01 03:41:56;;;;;;;24.48;5.50;;;;;;;;;;6273543;22;19996;-65
2022/01/01 03:44:22;;;;;;;25.38;6.22;;;;;;;;;;6272232;22;20000;-67
2022/01/01 03:46:48;;;;;;;23.80;6.93;;;;;;;;;;6271971;22;20023;-67
2022/01/01 03:49:14;;;;;;;21.77;5.95;;;;;;;;;;6273729;22;20346;-65
2022/01/01 03:51:41;;;;;;;18.63;7.20;;;;;;;;;;6272811;22;20006;-65
2022/01/01 03:54:07;;;;;;;23.40;7.07;;;;;;;;;;6272937;22;20426;-66
2022/01/01 03:56:36;;;;;;;21.52;7.18;;;;;;;;;;6273437;22;20007;-66
2022/01/01 03:59:03;;;;;;;28.67;8.82;;;;;;;;;;6273014;22;20116;-64
2022/01/01 04:01:29;;;;;;;18.30;5.97;;;;;;;;;;6272926;22;20003;-68
2022/01/01 04:03:55;;;;;;;21.58;5.72;;;;;;;;;;6272763;22;20002;-66
2022/01/01 04:06:21;;;;;;;25.13;7.05;;;;;;;;;;6273197;22;20000;-69
2022/01/01 04:08:47;;;;;;;46.05;8.38;;;;;;;;;;6269501;22;20075;-65
2022/01/01 04:11:13;;;;;;;17.48;6.40;;;;;;;;;;6273094;22;20011;-67
2022/01/01 04:13:40;;;;;;;25.15;6.68;;;;;;;;;;6272769;22;20003;-66
2022/01/01 04:16:06;;;;;;;22.52;8.13;;;;;;;;;;6273233;22;20015;-68
2022/01/01 04:18:39;;;;;;;37.58;8.05;;;;;;;;;;6273489;22;20446;-66
2022/01/01 04:21:09;;;;;;;22.67;6.55;;;;;;;;;;6272206;22;20438;-64
2022/01/01 04:23:35;;;;;;;37.30;8.43;;;;;;;;;;6272051;22;20015;-67
2022/01/01 04:26:01;;;;;;;28.38;7.85;;;;;;;;;;6271195;22;20047;-64
2022/01/01 04:28:27;;;;;;;21.98;6.65;;;;;;;;;;6272023;22;20007;-66
2022/01/01 04:30:53;;;;;;;26.77;7.20;;;;;;;;;;6272606;22;20238;-66
2022/01/01 04:33:19;;;;;;;25.85;7.57;;;;;;;;;;6271914;22;20054;-67
2022/01/01 04:35:45;;;;;;;28.90;7.70;;;;;;;;;;6272210;22;20083;-65
2022/01/01 04:38:28;;;;;;;39.28;8.00;;;;;;;;;;6270722;22;20291;-68
2022/01/01 04:40:54;;;;;;;26.65;8.38;;;;;;;;;;6272272;22;20095;-66
2022/01/01 04:43:21;;;;;;;33.25;8.05;;;;;;;;;;6270980;22;20062;-66
2022/01/01 04:45:47;;;;;;;32.00;7.50;;;;;;;;;;6271690;22;20003;-66
2022/01/01 04:48:13;;;;;;;23.75;7.85;;;;;;;;;;6273764;22;20003;-67
2022/01/01 04:50:39;;;;;;;22.88;7.57;;;;;;;;;;6273415;22;20054;-66
2022/01/01 04:53:05;;;;;;;27.15;7.82;;;;;;;;;;6272904;22;20386;-66
2022/01/01 04:55:31;;;;;;;22.85;6.70;;;;;;;;;;6273994;22;20090;-66
2022/01/01 04:57:57;;;;;;;34.83;8.27;;;;;;;;;;6272429;22;20106;-68
2022/01/01 05:00:23;;;;;;;24.40;7.65;;;;;;;;;;6273989;22;20000;-65
2022/01/01 05:02:49;;;;;;;30.90;7.60;;;;;;;;;;6271714;22;20724;-65
2022/01/01 05:05:15;;;;;;;25.80;7.07;;;;;;;;;;6273067;22;20011;-65
2022/01/01 05:07:43;;;;;;;28.75;8.35;;;;;;;;;;6272656;22;20734;-68
2022/01/01 05:10:09;;;;;;;30.67;7.28;;;;;;;;;;6274233;22;20349;-67
2022/01/01 05:12:36;;;;;;;21.75;6.47;;;;;;;;;;6270947;22;20015;-66
2022/01/01 05:15:02;;;;;;;24.80;7.05;;;;;;;;;;6272922;22;20031;-67
2022/01/01 05:17:28;;;;;;;24.42;7.75;;;;;;;;;;6274764;22;20026;-65
2022/01/01 05:19:54;;;;;;;32.45;6.88;;;;;;;;;;6272586;22;20385;-66
2022/01/01 05:22:20;;;;;;;23.48;7.38;;;;;;;;;;6276268;22;20027;-68
2022/01/01 05:24:46;;;;;;;30.85;8.18;;;;;;;;;;6275221;22;20034;-70
2022/01/01 05:27:12;;;;;;;33.05;8.23;;;;;;;;;;6274690;22;20003;-65
2022/01/01 05:29:38;;;;;;;33.22;7.90;;;;;;;;;;6274720;22;20004;-69
2022/01/01 05:32:05;;;;;;;22.30;7.47;;;;;;;;;;6275864;22;20027;-67
2022/01/01 05:34:31;;;;;;;30.85;8.73;;;;;;;;;;6274188;22;20019;-68
2022/01/01 05:36:57;;;;;;;26.42;8.18;;;;;;;;;;6275138;22;20023;-66
2022/01/01 05:39:23;;;;;;;26.38;8.05;;;;;;;;;;6275286;22;20008;-66
2022/01/01 05:41:54;;;;;;;29.85;7.72;;;;;;;;;;6275823;22;20003;-68
2022/01/01 05:44:20;;;;;;;38.92;9.98;;;;;;;;;;6274737;22;20000;-67
2022/01/01 05:46:46;;;;;;;37.30;8.02;;;;;;;;;;6275447;22;20516;-67
2022/01/01 05:49:13;;;;;;;29.20;8.27;;;;;;;;;;6273569;22;20094;-64
2022/01/01 05:51:39;;;;;;;26.42;8.88;;;;;;;;;;6274948;22;20012;-66
2022/01/01 05:54:05;;;;;;;30.48;7.82;;;;;;;;;;6274716;22;19999;-67
2022/01/01 05:56:31;;;;;;;33.30;9.25;;;;;;;;;;6275212;22;20004;-65
2022/01/01 05:58:57;;;;;;;27.25;8.20;;;;;;;;;;6274605;22;20007;-67
2022/01/01 06:01:24;;;;;;;31.42;8.00;;;;;;;;;;6275402;22;20006;-68
2022/01/01 06:03:50;;;;;;;26.23;8.20;;;;;;;;;;6274191;22;20362;-66
2022/01/01 06:06:16;;;;;;;33.92;9.32;;;;;;;;;;6273570;22;20286;-65
2022/01/01 06:08:42;;;;;;;29.27;8.35;;;;;;;;;;6275539;22;20004;-65
2022/01/01 06:11:08;;;;;;;29.13;7.15;;;;;;;;;;6274671;22;20011;-66
2022/01/01 06:13:34;;;;;;;27.80;8.57;;;;;;;;;;6275101;22;20021;-63
2022/01/01 06:16:00;;;;;;;35.35;10.18;;;;;;;;;;6274327;22;20118;-67
2022/01/01 06:18:26;;;;;;;30.48;9.05;;;;;;;;;;6274815;22;20079;-64
2022/01/01 06:20:52;;;;;;;36.17;9.45;;;;;;;;;;6275045;22;20008;-66
2022/01/01 06:23:18;;;;;;;28.45;7.53;;;;;;;;;;6274235;22;20010;-67
2022/01/01 06:25:44;;;;;;;32.28;8.45;;;;;;;;;;6273008;22;20004;-66
2022/01/01 06:28:11;;;;;;;43.15;9.70;;;;;;;;;;6274171;22;20424;-64
2022/01/01 06:30:38;;;;;;;25.20;8.00;;;;;;;;;;6276002;22;20350;-67
2022/01/01 06:33:15;;;;;;;33.88;8.95;;;;;;;;;;6273970;22;20343;-66
2022/01/01 06:35:45;;;;;;;32.00;9.02;;;;;;;;;;6274584;22;19999;-63
2022/01/01 06:38:12;;;;;;;38.80;8.95;;;;;;;;;;6273535;22;20014;-66
2022/01/01 06:40:41;;;;;;;25.33;7.20;;;;;;;;;;6274832;22;20061;-68
2022/01/01 06:43:08;;;;;;;24.65;6.85;;;;;;;;;;6274868;22;20000;-66
2022/01/01 06:45:34;;;;;;;24.75;8.13;;;;;;;;;;6274421;22;19999;-69
2022/01/01 06:48:00;;;;;;;27.02;6.70;;;;;;;;;;6274242;22;20007;-65
2022/01/01 06:50:26;;;;;;;29.17;7.18;;;;;;;;;;6274292;22;20465;-66
2022/01/01 06:52:53;;;;;;;20.80;7.03;;;;;;;;;;6273995;22;20003;-64
2022/01/01 06:55:19;;;;;;;25.30;7.32;;;;;;;;;;6274532;22;20012;-68
2022/01/01 06:57:45;;;;;;;29.17;7.10;;;;;;;;;;6275353;22;20038;-70
2022/01/01 07:00:12;;;;;;;25.00;7.32;;;;;;;;;;6273842;22;20322;-68
2022/01/01 07:02:42;;;;;;;22.63;6.85;;;;;;;;;;6274904;22;20003;-63
2022/01/01 07:05:09;;;;;;;27.58;7.55;;;;;;;;;;6274674;22;20003;-64
2022/01/01 07:07:35;;;;;;;27.90;6.97;;;;;;;;;;6275849;22;20086;-66
2022/01/01 07:10:01;;;;;;;26.25;6.00;;;;;;;;;;6273771;22;20476;-67
2022/01/01 07:12:27;;;;;;;20.58;5.65;;;;;;;;;;6275214;22;20039;-65
2022/01/01 07:14:54;;;;;;;21.65;5.55;;;;;;;;;;6273705;22;20014;-67
2022/01/01 07:17:20;;;;;;;23.02;6.47;;;;;;;;;;6272338;22;20004;-68
2022/01/01 07:19:46;;;;;;;23.40;5.05;;;;;;;;;;6272783;22;20642;-65
2022/01/01 07:22:12;;;;;;;20.50;5.63;;;;;;;;;;6274097;22;19995;-68
2022/01/01 07:24:38;;;;;;;17.48;5.45;;;;;;;;;;6274033;22;20084;-64
2022/01/01 07:27:04;;;;;;;26.45;6.75;;;;;;;;;;6273344;22;20000;-67
2022/01/01 07:29:31;;;;;;;24.60;5.63;;;;;;;;;;6274252;22;20454;-64
2022/01/01 07:31:57;;;;;;;16.25;4.78;;;;;;;;;;6274548;22;20015;-64
2022/01/01 07:34:23;;;;;;;19.33;4.88;;;;;;;;;;6274699;22;20011;-66
2022/01/01 07:36:49;;;;;;;24.60;5.30;;;;;;;;;;6274923;22;20007;-67
2022/01/01 07:39:15;;;;;;;20.63;4.75;;;;;;;;;;6274264;22;20012;-64
2022/01/01 07:41:42;;;;;;;19.63;4.28;;;;;;;;;;6274092;22;20000;-65
2022/01/01 07:44:10;;;;;;;13.55;4.72;;;;;;;;;;6274538;22;20063;-69
2022/01/01 07:46:36;;;;;;;23.02;5.47;;;;;;;;;;6273790;22;20006;-67
2022/01/01 07:49:02;;;;;;;16.98;5.15;;;;;;;;;;6273144;22;20057;-67
2022/01/01 07:51:28;;;;;;;18.15;6.25;;;;;;;;;;6273501;22;20004;-66
2022/01/01 07:53:54;;;;;;;24.35;5.57;;;;;;;;;;6273545;22;20351;-67
2022/01/01 07:56:21;;;;;;;19.15;4.70;;;;;;;;;;6273976;22;20007;-68
2022/01/01 07:58:47;;;;;;;24.92;6.50;;;;;;;;;;6274287;22;20006;-66
2022/01/01 08:01:13;;;;;;;20.13;6.07;;;;;;;;;;6273107;22;20382;-64
2022/01/01 08:03:40;;;;;;;22.65;7.07;;;;;;;;;;6273907;22;20113;-63
2022/01/01 08:06:06;;;;;;;20.20;5.47;;;;;;;;;;6271490;22;20010;-66
2022/01/01 08:08:32;;;;;;;17.90;5.55;;;;;;;;;;6274280;22;20010;-65
2022/01/01 08:10:59;;;;;;;19.38;5.55;;;;;;;;;;6273824;22;20435;-64
2022/01/01 08:13:25;;;;;;;29.10;7.18;;;;;;;;;;6272884;22;20465;-67
2022/01/01 08:15:55;;;;;;;20.90;6.32;;;;;;;;;;6273833;22;20420;-63
2022/01/01 08:18:22;;;;;;;22.65;6.95;;;;;;;;;;6271995;22;20007;-68
2022/01/01 08:20:48;;;;;;;21.65;5.93;;;;;;;;;;6274220;22;20082;-66
2022/01/01 08:23:15;;;;;;;24.88;5.50;;;;;;;;;;6273493;22;20008;-65
2022/01/01 08:25:41;;;;;;;34.05;5.68;;;;;;;;;;6274504;22;20007;-66
2022/01/01 08:28:09;;;;;;;20.98;5.32;;;;;;;;;;6272817;22;20031;-67
2022/01/01 08:30:35;;;;;;;15.82;5.38;;;;;;;;;;6274527;22;20086;-70
2022/01/01 08:33:02;;;;;;;23.17;7.63;;;;;;;;;;6272293;22;20011;-64
2022/01/01 08:35:29;;;;;;;24.98;6.15;;;;;;;;;;6272477;22;20006;-67
2022/01/01 08:37:56;;;;;;;17.23;5.25;;;;;;;;;;6272481;22;20011;-63
2022/01/01 08:40:22;;;;;;;21.27;5.50;;;;;;;;;;6273560;22;20003;-67
2022/01/01 08:42:48;;;;;;;19.00;5.88;;;;;;;;;;6272975;22;20006;-65
2022/01/01 08:45:15;;;;;;;18.38;4.82;;;;;;;;;;6274290;22;20011;-67
2022/01/01 08:47:41;;;;;;;25.05;5.93;;;;;;;;;;6272949;22;20327;-65
2022/01/01 08:50:07;;;;;;;21.63;5.03;;;;;;;;;;6273606;22;20026;-68
2022/01/01 08:52:34;;;;;;;19.10;5.43;;;;;;;;;;6274588;22;20027;-66
2022/01/01 08:55:00;;;;;;;15.73;6.43;;;;;;;;;;6276217;22;20061;-68
2022/01/01 08:57:26;;;;;;;22.13;5.35;;;;;;;;;;6275578;22;20019;-65
2022/01/01 08:59:53;;;;;;;22.30;4.60;;;;;;;;;;6275531;22;20065;-67
2022/01/01 09:02:19;;;;;;;22.13;5.57;;;;;;;;;;6274504;22;20003;-64
2022/01/01 09:04:45;;;;;;;16.27;4.95;;;;;;;;;;6275727;22;20042;-64
2022/01/01 09:07:12;;;;;;;22.08;5.93;;;;;;;;;;6275608;22;19996;-68
2022/01/01 09:09:39;;;;;;;22.23;5.55;;;;;;;;;;6274532;22;20010;-64
2022/01/01 09:12:05;;;;;;;19.13;4.80;;;;;;;;;;6275445;22;20008;-68
2022/01/01 09:14:31;;;;;;;27.17;6.00;;;;;;;;;;6275198;22;20018;-67
2022/01/01 09:16:57;;;;;;;21.88;5.38;;;;;;;;;;6274286;22;20004;-64
2022/01/01 09:19:24;;;;;;;20.33;5.88;;;;;;;;;;6274490;22;20004;-66
2022/01/01 09:21:50;;;;;;;22.17;4.95;;;;;;;;;;6275423;22;20022;-68
2022/01/01 09:24:16;;;;;;;24.25;5.60;;;;;;;;;;6274710;22;20018;-64
2022/01/01 09:26:42;;;;;;;19.42;5.63;;;;;;;;;;6275709;22;19996;-65
2022/01/01 09:29:10;;;;;;;22.58;6.15;;;;;;;;;;6275628;22;20374;-64
2022/01/01 09:31:38;;;;;;;24.05;6.03;;;;;;;;;;6276338;22;20670;-65
2022/01/01 09:34:05;;;;;;;28.27;6.25;;;;;;;;;;6273769;22;20004;-66
2022/01/01 09:36:31;;;;;;;22.40;5.60;;;;;;;;;;6274380;22;20382;-65
2022/01/01 09:38:57;;;;;;;24.40;8.10;;;;;;;;;;6275932;22;20008;-64
2022/01/01 09:41:23;;;;;;;19.70;5.55;;;;;;;;;;6274852;22;20011;-67
2022/01/01 09:43:53;;;;;;;28.40;6.93;;;;;;;;;;6275619;22;20028;-65
2022/01/01 09:46:19;;;;;;;24.00;6.18;;;;;;;;;;6276529;22;20473;-65
2022/01/01 09:48:46;;;;;;;28.17;7.10;;;;;;;;;;6272547;22;20433;-65
2022/01/01 09:51:13;;;;;;;18.00;5.20;;;;;;;;;;6275644;22;19999;-66
2022/01/01 09:53:40;;;;;;;23.98;4.65;;;;;;;;;;6273505;22;20003;-65
2022/01/01 09:56:06;;;;;;;26.17;7.25;;;;;;;;;;6275121;22;20023;-66
2022/01/01 09:58:34;;;;;;;27.42;8.90;;;;;;;;;;6273820;22;20287;-67
2022/01/01 10:01:02;;;;;;;28.02;9.32;;;;;;;;;;6275361;22;20004;-67
2022/01/01 10:03:29;;;;;;;24.25;9.93;;;;;;;;;;6274378;22;20054;-69
2022/01/01 10:05:59;;;;;;;25.23;7.38;;;;;;;;;;6274634;22;20007;-66
2022/01/01 10:08:25;;;;;;;24.13;6.68;;;;;;;;;;6274743;22;20011;-64
2022/01/01 10:10:51;;;;;;;21.58;7.40;;;;;;;;;;6273791;22;20075;-68
2022/01/01 10:13:20;;;;;;;28.73;8.68;;;;;;;;;;6275406;22;20033;-68
2022/01/01 10:15:46;;;;;;;29.85;7.65;;;;;;;;;;6274416;22;20453;-65
2022/01/01 10:18:12;;;;;;;23.50;6.00;;;;;;;;;;6275493;22;20011;-65
2022/01/01 10:20:43;;;;;;;22.90;6.68;;;;;;;;;;6274520;22;20092;-66
2022/01/01 10:23:11;;;;;;;25.65;6.28;;;;;;;;;;6274736;22;20075;-66
2022/01/01 10:28:22;;;;;;;29.97;9.67;;;;;;;;;;6274906;22;20046;-69
2022/01/01 10:30:49;;;;;;;29.35;6.05;;;;;;;;;;6274629;22;20242;-68
2022/01/01 10:33:16;;;;;;;23.67;5.60;;;;;;;;;;6276232;22;20010;-66
2022/01/01 10:35:42;;;;;;;27.50;6.75;;;;;;;;;;6274998;22;20003;-66
2022/01/01 10:38:11;;;;;;;28.83;7.30;;;;;;;;;;6274784;22;20056;-67
2022/01/01 10:40:37;;;;;;;27.67;7.00;;;;;;;;;;6274983;22;20004;-65
2022/01/01 10:43:04;;;;;;;32.58;6.40;;;;;;;;;;6276464;22;20051;-65
2022/01/01 10:45:47;;;;;;;32.20;6.93;;;;;;;;;;6277658;22;20004;-65
2022/01/01 10:48:23;;;;;;;27.90;6.60;;;;;;;;;;6276488;22;19999;-68
2022/01/01 10:50:50;;;;;;;24.33;8.23;;;;;;;;;;6274132;22;20421;-69
2022/01/01 10:53:17;;;;;;;24.90;6.15;;;;;;;;;;6274866;22;20007;-65
2022/01/01 10:55:44;;;;;;;16.83;6.03;;;;;;;;;;6274625;22;20008;-67
2022/01/01 10:58:16;;;;;;;25.85;6.82;;;;;;;;;;6275372;22;20003;-66
2022/01/01 11:00:43;;;;;;;17.30;5.13;;;;;;;;;;6274218;22;20000;-65
2022/01/01 11:03:09;;;;;;;19.88;7.38;;;;;;;;;;6274829;22;20024;-68
2022/01/01 11:05:36;;;;;;;27.77;7.30;;;;;;;;;;6275298;22;20062;-68
2022/01/01 11:08:03;;;;;;;30.70;7.30;;;;;;;;;;6274070;22;20031;-66
2022/01/01 11:10:30;;;;;;;24.15;7.20;;;;;;;;;;6274449;22;20469;-65
2022/01/01 11:12:56;;;;;;;21.17;5.30;;;;;;;;;;6272269;22;20007;-66
2022/01/01 11:15:23;;;;;;;22.00;6.28;;;;;;;;;;6274022;22;20007;-69
2022/01/01 11:17:49;;;;;;;29.33;6.60;;;;;;;;;;6273896;22;20095;-65
2022/01/01 11:20:16;;;;;;;22.38;5.18;;;;;;;;;;6273779;22;20053;-66
2022/01/01 11:22:42;;;;;;;20.15;5.63;;;;;;;;;;6273597;22;20413;-66
2022/01/01 11:25:09;;;;;;;24.25;6.28;;;;;;;;;;6274670;22;20004;-68
2022/01/01 11:27:36;;;;;;;28.42;8.98;;;;;;;;;;6273542;22;19999;-68
2022/01/01 11:30:07;;;;;;;29.92;6.70;;;;;;;;;;6273649;22;20315;-66
2022/01/01 11:32:51;;;;;;;17.40;6.10;;;;;;;;;;6274206;22;20050;-66
2022/01/01 11:35:21;;;;;;;24.38;7.18;;;;;;;;;;6274275;22;20003;-67
2022/01/01 11:38:03;;;;;;;25.33;6.38;;;;;;;;;;6273353;22;20004;-64
2022/01/01 11:40:33;;;;;;;25.35;7.07;;;;;;;;;;6275891;22;20008;-66
2022/01/01 11:43:00;;;;;;;28.13;7.63;;;;;;;;;;6273844;22;20088;-63
2022/01/01 11:45:42;;;;;;;23.60;7.25;;;;;;;;;;6274767;22;20384;-66
2022/01/01 11:48:26;;;;;;;29.75;7.00;;;;;;;;;;6274674;22;20415;-65
2022/01/01 11:50:52;;;;;;;22.27;6.88;;;;;;;;;;6272961;22;20339;-65
2022/01/01 11:53:28;;;;;;;17.77;7.32;;;;;;;;;;6274923;22;20415;-67
2022/01/01 11:56:07;;;;;;;25.30;7.93;;;;;;;;;;6273379;22;20015;-64
2022/01/01 11:58:47;;;;;;;20.58;6.88;;;;;;;;;;6271378;22;20012;-66
2022/01/01 12:01:15;;;;;;;18.50;6.03;;;;;;;;;;6274028;22;20004;-68
2022/01/01 12:03:48;;;;;;;20.05;5.22;;;;;;;;;;6274240;22;19996;-66
2022/01/01 12:06:14;;;;;;;22.65;6.80;;;;;;;;;;6275189;22;20004;-65
2022/01/01 12:08:41;;;;;;;22.58;7.70;;;;;;;;;;6273511;22;19999;-67
2022/01/01 12:11:08;;;;;;;22.90;6.55;;;;;;;;;;6273795;22;20082;-67
2022/01/01 12:13:38;;;;;;;25.00;6.32;;;;;;;;;;6273620;22;20051;-67
2022/01/01 12:16:21;;;;;;;21.90;6.50;;;;;;;;;;6273424;22;20078;-68
2022/01/01 12:18:47;;;;;;;26.00;6.43;;;;;;;;;;6274266;22;19999;-68
2022/01/01 12:21:21;;;;;;;17.60;6.32;;;;;;;;;;6274713;22;20000;-69
2022/01/01 12:23:54;;;;;;;23.25;6.57;;;;;;;;;;6273743;22;20004;-66
2022/01/01 12:26:30;;;;;;;18.50;5.13;;;;;;;;;;6272902;22;20000;-67
2022/01/01 12:29:01;;;;;;;19.83;5.47;;;;;;;;;;6274745;22;20349;-65
2022/01/01 12:31:28;;;;;;;21.52;6.15;;;;;;;;;;6274260;22;19996;-66
2022/01/01 12:33:59;;;;;;;23.33;5.78;;;;;;;;;;6274181;22;20014;-66
2022/01/01 12:36:31;;;;;;;20.17;6.57;;;;;;;;;;6273583;22;19999;-66
2022/01/01 12:39:01;;;;;;;17.00;4.95;;;;;;;;;;6273439;22;20036;-66
2022/01/01 12:41:46;;;;;;;16.15;5.15;;;;;;;;;;6273097;22;20026;-67
2022/01/01 12:44:22;;;;;;;22.75;6.10;;;;;;;;;;6273880;22;20004;-66
2022/01/01 12:46:49;;;;;;;22.58;4.95;;;;;;;;;;6273739;22;20098;-66
2022/01/01 12:49:16;;;;;;;20.30;5.90;;;;;;;;;;6273972;22;20205;-69
2022/01/01 12:51:42;;;;;;;20.00;5.95;;;;;;;;;;6273098;22;20008;-64
2022/01/01 12:54:11;;;;;;;16.95;4.78;;;;;;;;;;6273955;22;20015;-69
2022/01/01 12:56:39;;;;;;;15.35;4.63;;;;;;;;;;6273426;22;20008;-67
2022/01/01 12:59:08;;;;;;;18.40;6.35;;;;;;;;;;6272664;22;20065;-66
2022/01/01 13:01:38;;;;;;;20.33;4.97;;;;;;;;;;6274652;22;20608;-66
2022/01/01 13:04:09;;;;;;;19.48;4.85;;;;;;;;;;6272226;22;19996;-67
2022/01/01 13:06:36;;;;;;;17.13;4.55;;;;;;;;;;6274159;22;20004;-69
2022/01/01 13:09:13;;;;;;;17.35;5.82;;;;;;;;;;6272581;22;20004;-66
2022/01/01 13:11:40;;;;;;;20.13;5.05;;;;;;;;;;6272956;22;20000;-64
2022/01/01 13:14:08;;;;;;;11.85;4.72;;;;;;;;;;6272455;22;20008;-67
2022/01/01 13:16:34;;;;;;;17.50;4.82;;;;;;;;;;6273610;22;19996;-66
2022/01/01 13:19:02;;;;;;;19.65;4.65;;;;;;;;;;6272597;22;20031;-66
2022/01/01 13:21:28;;;;;;;16.73;5.30;;;;;;;;;;6265415;22;20430;-64
2022/01/01 13:23:55;;;;;;;15.48;4.20;;;;;;;;;;6267367;22;20043;-66
2022/01/01 13:26:22;;;;;;;14.88;4.55;;;;;;;;;;6267178;22;20004;-67
2022/01/01 13:28:48;;;;;;;16.83;6.88;;;;;;;;;;6267657;22;20003;-63
2022/01/01 13:31:14;;;;;;;18.13;5.13;;;;;;;;;;6266915;22;20511;-67
2022/01/01 13:33:51;;;;;;;16.45;4.57;;;;;;;;;;6265174;22;20709;-65
2022/01/01 13:36:34;;;;;;;18.90;5.22;;;;;;;;;;6266902;22;20004;-66
2022/01/01 13:39:01;;;;;;;19.17;4.53;;;;;;;;;;6269003;22;20430;-67
2022/01/01 13:41:34;;;;;;;21.08;5.50;;;;;;;;;;6268979;22;20517;-65
2022/01/01 13:44:15;;;;;;;26.23;4.90;;;;;;;;;;6269445;22;20004;-70
2022/01/01 13:46:41;;;;;;;14.65;4.90;;;;;;;;;;6270589;22;20010;-67
2022/01/01 13:49:11;;;;;;;17.13;5.05;;;;;;;;;;6270403;22;20010;-66
2022/01/01 13:51:37;;;;;;;19.27;5.07;;;;;;;;;;6271310;22;20008;-67
2022/01/01 13:54:07;;;;;;;15.73;5.13;;;;;;;;;;6270836;22;20008;-64
2022/01/01 13:56:34;;;;;;;21.23;4.85;;;;;;;;;;6270830;22;20054;-66
2022/01/01 13:59:01;;;;;;;13.27;4.85;;;;;;;;;;6268940;22;20426;-67
2022/01/01 14:01:28;;;;;;;17.58;5.07;;;;;;;;;;6271143;22;20007;-65
2022/01/01 14:03:55;;;;;;;14.98;5.25;;;;;;;;;;6267141;22;20090;-68
2022/01/01 14:06:25;;;;;;;17.58;4.68;;;;;;;;;;6268231;22;20004;-66
2022/01/01 14:09:05;;;;;;;18.48;4.05;;;;;;;;;;6269545;22;20039;-65
2022/01/01 14:11:35;;;;;;;13.90;4.13;;;;;;;;;;6268813;22;20103;-65
2022/01/01 14:14:05;;;;;;;12.60;5.05;;;;;;;;;;6272602;22;20028;-68
2022/01/01 14:16:32;;;;;;;16.13;5.07;;;;;;;;;;6273211;22;20010;-64
2022/01/01 14:19:00;;;;;;;15.25;4.75;;;;;;;;;;6272651;22;20007;-65
2022/01/01 14:21:26;;;;;;;17.77;5.05;;;;;;;;;;6270335;22;20004;-65
2022/01/01 14:23:54;;;;;;;21.95;5.68;;;;;;;;;;6268513;22;20032;-63
2022/01/01 14:26:22;;;;;;;16.05;4.88;;;;;;;;;;6269995;22;20039;-65
2022/01/01 14:28:49;;;;;;;19.98;4.95;;;;;;;;;;6268770;22;20024;-64
2022/01/01 14:31:15;;;;;;;18.48;4.60;;;;;;;;;;6267233;22;20007;-66
2022/01/01 14:33:42;;;;;;;16.23;5.15;;;;;;;;;;6268767;22;19999;-66
2022/01/01 14:36:09;;;;;;;16.95;5.03;;;;;;;;;;6269806;22;20050;-66
2022/01/01 14:38:35;;;;;;;11.77;4.63;;;;;;;;;;6269790;22;20004;-65